sensor_id;sensor_type;location;lat;lon;timestamp;P1;durP1;ratioP1;P2;durP2;ratioP2
52380;SDS011;38310;52.796;6.942;2022-12-18T00:00:43;121.22;;;50.97;;
52380;SDS011;38310;52.796;6.942;2022-12-18T00:03:08;113.35;;;50.85;;
52380;SDS011;38310;52.796;6.942;2022-12-18T00:05:34;123.20;;;48.10;;
52380;SDS011;38310;52.796;6.942;2022-12-18T00:08:00;115.50;;;51.00;;
52380;SDS011;38310;52.796;6.942;2022-12-18T00:10:27;107.72;;;50.92;;
52380;SDS011;38310;52.796;6.942;2022-12-18T00:12:53;111.35;;;48.42;;
52380;SDS011;38310;52.796;6.942;2022-12-18T00:15:19;107.30;;;47.45;;
52380;SDS011;38310;52.796;6.942;2022-12-18T00:17:45;114.80;;;51.38;;
52380;SDS011;38310;52.796;6.942;2022-12-18T00:20:11;102.97;;;47.50;;
52380;SDS011;38310;52.796;6.942;2022-12-18T00:22:37;110.07;;;48.40;;
52380;SDS011;38310;52.796;6.942;2022-12-18T00:25:03;111.32;;;49.92;;
52380;SDS011;38310;52.796;6.942;2022-12-18T00:27:29;112.80;;;50.03;;
52380;SDS011;38310;52.796;6.942;2022-12-18T00:29:54;104.57;;;49.17;;
52380;SDS011;38310;52.796;6.942;2022-12-18T00:32:20;114.03;;;50.00;;
52380;SDS011;38310;52.796;6.942;2022-12-18T00:34:46;114.00;;;48.75;;
52380;SDS011;38310;52.796;6.942;2022-12-18T00:37:11;102.47;;;47.03;;
52380;SDS011;38310;52.796;6.942;2022-12-18T00:39:37;110.60;;;49.15;;
52380;SDS011;38310;52.796;6.942;2022-12-18T00:42:02;115.65;;;49.42;;
52380;SDS011;38310;52.796;6.942;2022-12-18T00:44:46;108.40;;;53.15;;
52380;SDS011;38310;52.796;6.942;2022-12-18T00:47:12;119.72;;;51.85;;
52380;SDS011;38310;52.796;6.942;2022-12-18T00:49:38;126.22;;;52.42;;
52380;SDS011;38310;52.796;6.942;2022-12-18T00:52:03;116.05;;;50.35;;
52380;SDS011;38310;52.796;6.942;2022-12-18T00:54:29;121.82;;;53.70;;
52380;SDS011;38310;52.796;6.942;2022-12-18T00:56:55;123.13;;;52.53;;
52380;SDS011;38310;52.796;6.942;2022-12-18T00:59:21;120.15;;;53.50;;
52380;SDS011;38310;52.796;6.942;2022-12-18T01:01:46;140.38;;;53.50;;
52380;SDS011;38310;52.796;6.942;2022-12-18T01:04:12;124.85;;;53.97;;
52380;SDS011;38310;52.796;6.942;2022-12-18T01:06:38;133.18;;;55.40;;
52380;SDS011;38310;52.796;6.942;2022-12-18T01:09:04;124.90;;;53.80;;
52380;SDS011;38310;52.796;6.942;2022-12-18T01:11:30;138.50;;;56.28;;
52380;SDS011;38310;52.796;6.942;2022-12-18T01:13:56;127.30;;;57.33;;
52380;SDS011;38310;52.796;6.942;2022-12-18T01:16:22;132.07;;;54.25;;
52380;SDS011;38310;52.796;6.942;2022-12-18T01:18:50;139.10;;;53.70;;
52380;SDS011;38310;52.796;6.942;2022-12-18T01:21:17;128.13;;;54.78;;
52380;SDS011;38310;52.796;6.942;2022-12-18T01:23:43;141.20;;;54.40;;
52380;SDS011;38310;52.796;6.942;2022-12-18T01:26:10;141.02;;;57.72;;
52380;SDS011;38310;52.796;6.942;2022-12-18T01:28:39;139.45;;;56.47;;
52380;SDS011;38310;52.796;6.942;2022-12-18T01:31:19;137.07;;;54.67;;
52380;SDS011;38310;52.796;6.942;2022-12-18T01:33:52;136.93;;;52.90;;
52380;SDS011;38310;52.796;6.942;2022-12-18T01:38:48;118.20;;;51.90;;
52380;SDS011;38310;52.796;6.942;2022-12-18T01:41:15;136.15;;;50.78;;
52380;SDS011;38310;52.796;6.942;2022-12-18T01:43:47;120.10;;;51.30;;
52380;SDS011;38310;52.796;6.942;2022-12-18T01:46:17;113.60;;;50.28;;
52380;SDS011;38310;52.796;6.942;2022-12-18T01:48:44;94.82;;;45.55;;
52380;SDS011;38310;52.796;6.942;2022-12-18T01:51:12;101.85;;;45.85;;
52380;SDS011;38310;52.796;6.942;2022-12-18T01:53:38;100.32;;;45.20;;
52380;SDS011;38310;52.796;6.942;2022-12-18T01:56:06;100.20;;;43.78;;
52380;SDS011;38310;52.796;6.942;2022-12-18T01:58:35;85.25;;;42.30;;
52380;SDS011;38310;52.796;6.942;2022-12-18T02:01:05;82.10;;;41.13;;
52380;SDS011;38310;52.796;6.942;2022-12-18T02:03:31;75.15;;;39.67;;
52380;SDS011;38310;52.796;6.942;2022-12-18T02:06:17;81.68;;;40.15;;
52380;SDS011;38310;52.796;6.942;2022-12-18T02:09:06;73.53;;;38.30;;
52380;SDS011;38310;52.796;6.942;2022-12-18T02:17:06;71.55;;;35.55;;
52380;SDS011;38310;52.796;6.942;2022-12-18T02:19:47;75.97;;;36.60;;
52380;SDS011;38310;52.796;6.942;2022-12-18T02:27:45;71.72;;;34.95;;
52380;SDS011;38310;52.796;6.942;2022-12-18T02:30:12;79.90;;;38.13;;
52380;SDS011;38310;52.796;6.942;2022-12-18T02:32:44;69.72;;;36.58;;
52380;SDS011;38310;52.796;6.942;2022-12-18T02:35:15;80.10;;;37.17;;
52380;SDS011;38310;52.796;6.942;2022-12-18T02:37:45;67.28;;;35.78;;
52380;SDS011;38310;52.796;6.942;2022-12-18T02:40:12;69.10;;;35.22;;
52380;SDS011;38310;52.796;6.942;2022-12-18T02:42:40;72.47;;;35.33;;
52380;SDS011;38310;52.796;6.942;2022-12-18T02:45:06;72.13;;;35.17;;
52380;SDS011;38310;52.796;6.942;2022-12-18T02:47:33;74.55;;;37.00;;
52380;SDS011;38310;52.796;6.942;2022-12-18T02:50:18;71.55;;;34.78;;
52380;SDS011;38310;52.796;6.942;2022-12-18T02:55:19;77.72;;;36.63;;
52380;SDS011;38310;52.796;6.942;2022-12-18T02:58:13;70.72;;;35.25;;
52380;SDS011;38310;52.796;6.942;2022-12-18T03:00:48;69.57;;;35.13;;
52380;SDS011;38310;52.796;6.942;2022-12-18T03:03:24;66.47;;;33.33;;
52380;SDS011;38310;52.796;6.942;2022-12-18T03:08:26;67.60;;;35.42;;
52380;SDS011;38310;52.796;6.942;2022-12-18T03:10:55;68.47;;;36.00;;
52380;SDS011;38310;52.796;6.942;2022-12-18T03:13:28;70.72;;;35.80;;
52380;SDS011;38310;52.796;6.942;2022-12-18T03:16:17;65.25;;;35.00;;
52380;SDS011;38310;52.796;6.942;2022-12-18T03:18:55;73.05;;;33.47;;
52380;SDS011;38310;52.796;6.942;2022-12-18T03:21:27;71.32;;;34.60;;
52380;SDS011;38310;52.796;6.942;2022-12-18T03:23:57;68.10;;;34.75;;
52380;SDS011;38310;52.796;6.942;2022-12-18T03:26:24;64.22;;;32.38;;
52380;SDS011;38310;52.796;6.942;2022-12-18T03:29:12;66.22;;;33.20;;
52380;SDS011;38310;52.796;6.942;2022-12-18T03:31:45;62.03;;;31.73;;
52380;SDS011;38310;52.796;6.942;2022-12-18T03:34:17;73.40;;;32.80;;
52380;SDS011;38310;52.796;6.942;2022-12-18T03:36:48;60.45;;;33.13;;
52380;SDS011;38310;52.796;6.942;2022-12-18T03:39:14;56.45;;;31.58;;
52380;SDS011;38310;52.796;6.942;2022-12-18T03:47:12;65.00;;;32.40;;
52380;SDS011;38310;52.796;6.942;2022-12-18T03:49:51;58.53;;;31.10;;
52380;SDS011;38310;52.796;6.942;2022-12-18T03:53:13;52.45;;;29.98;;
52380;SDS011;38310;52.796;6.942;2022-12-18T03:55:21;54.28;;;30.83;;
52380;SDS011;38310;52.796;6.942;2022-12-18T03:57:48;60.33;;;30.55;;
52380;SDS011;38310;52.796;6.942;2022-12-18T04:00:15;54.90;;;29.83;;
52380;SDS011;38310;52.796;6.942;2022-12-18T04:02:44;54.63;;;30.20;;
52380;SDS011;38310;52.796;6.942;2022-12-18T04:05:15;57.20;;;29.42;;
52380;SDS011;38310;52.796;6.942;2022-12-18T04:07:42;59.05;;;29.70;;
52380;SDS011;38310;52.796;6.942;2022-12-18T04:10:10;53.25;;;29.27;;
52380;SDS011;38310;52.796;6.942;2022-12-18T04:12:37;55.00;;;29.60;;
52380;SDS011;38310;52.796;6.942;2022-12-18T04:15:03;54.72;;;28.00;;
52380;SDS011;38310;52.796;6.942;2022-12-18T04:17:29;50.58;;;29.95;;
52380;SDS011;38310;52.796;6.942;2022-12-18T04:19:55;49.17;;;28.10;;
52380;SDS011;38310;52.796;6.942;2022-12-18T04:22:21;54.80;;;29.50;;
52380;SDS011;38310;52.796;6.942;2022-12-18T04:24:46;55.78;;;29.20;;
52380;SDS011;38310;52.796;6.942;2022-12-18T04:27:12;54.47;;;29.23;;
52380;SDS011;38310;52.796;6.942;2022-12-18T04:29:38;52.78;;;29.30;;
52380;SDS011;38310;52.796;6.942;2022-12-18T04:32:04;51.42;;;29.58;;
52380;SDS011;38310;52.796;6.942;2022-12-18T04:34:29;56.13;;;29.38;;
52380;SDS011;38310;52.796;6.942;2022-12-18T04:36:55;58.00;;;28.55;;
52380;SDS011;38310;52.796;6.942;2022-12-18T04:39:21;50.97;;;27.73;;
52380;SDS011;38310;52.796;6.942;2022-12-18T04:41:46;58.35;;;29.92;;
52380;SDS011;38310;52.796;6.942;2022-12-18T04:44:13;46.70;;;27.13;;
52380;SDS011;38310;52.796;6.942;2022-12-18T04:46:38;46.65;;;26.77;;
52380;SDS011;38310;52.796;6.942;2022-12-18T04:49:04;49.45;;;26.17;;
52380;SDS011;38310;52.796;6.942;2022-12-18T04:51:30;52.72;;;27.23;;
52380;SDS011;38310;52.796;6.942;2022-12-18T04:53:55;52.08;;;28.35;;
52380;SDS011;38310;52.796;6.942;2022-12-18T04:56:21;51.22;;;28.92;;
52380;SDS011;38310;52.796;6.942;2022-12-18T04:58:47;53.28;;;27.23;;
52380;SDS011;38310;52.796;6.942;2022-12-18T05:01:14;47.20;;;27.20;;
52380;SDS011;38310;52.796;6.942;2022-12-18T05:03:40;52.33;;;30.13;;
52380;SDS011;38310;52.796;6.942;2022-12-18T05:06:06;44.92;;;26.30;;
52380;SDS011;38310;52.796;6.942;2022-12-18T05:08:32;48.63;;;27.55;;
52380;SDS011;38310;52.796;6.942;2022-12-18T05:11:02;48.55;;;27.33;;
52380;SDS011;38310;52.796;6.942;2022-12-18T05:15:58;44.08;;;26.20;;
52380;SDS011;38310;52.796;6.942;2022-12-18T05:18:24;44.03;;;25.80;;
52380;SDS011;38310;52.796;6.942;2022-12-18T05:20:51;50.85;;;26.98;;
52380;SDS011;38310;52.796;6.942;2022-12-18T05:23:17;45.30;;;26.35;;
52380;SDS011;38310;52.796;6.942;2022-12-18T05:25:54;47.75;;;28.05;;
52380;SDS011;38310;52.796;6.942;2022-12-18T05:28:25;43.75;;;25.38;;
52380;SDS011;38310;52.796;6.942;2022-12-18T05:30:53;47.28;;;26.95;;
52380;SDS011;38310;52.796;6.942;2022-12-18T05:33:22;40.67;;;25.70;;
52380;SDS011;38310;52.796;6.942;2022-12-18T05:35:56;44.58;;;25.95;;
52380;SDS011;38310;52.796;6.942;2022-12-18T05:38:27;50.80;;;27.80;;
52380;SDS011;38310;52.796;6.942;2022-12-18T05:40:54;44.65;;;25.90;;
52380;SDS011;38310;52.796;6.942;2022-12-18T05:43:21;44.00;;;26.40;;
52380;SDS011;38310;52.796;6.942;2022-12-18T05:45:48;41.90;;;26.70;;
52380;SDS011;38310;52.796;6.942;2022-12-18T05:48:14;46.75;;;26.95;;
52380;SDS011;38310;52.796;6.942;2022-12-18T05:50:41;46.92;;;26.02;;
52380;SDS011;38310;52.796;6.942;2022-12-18T05:53:10;40.20;;;24.67;;
52380;SDS011;38310;52.796;6.942;2022-12-18T05:55:37;41.00;;;25.02;;
52380;SDS011;38310;52.796;6.942;2022-12-18T05:58:05;46.60;;;25.05;;
52380;SDS011;38310;52.796;6.942;2022-12-18T06:00:32;45.60;;;25.77;;
52380;SDS011;38310;52.796;6.942;2022-12-18T06:03:00;47.30;;;26.00;;
52380;SDS011;38310;52.796;6.942;2022-12-18T06:05:26;42.45;;;24.08;;
52380;SDS011;38310;52.796;6.942;2022-12-18T06:07:52;42.53;;;25.95;;
52380;SDS011;38310;52.796;6.942;2022-12-18T06:10:18;39.33;;;25.63;;
52380;SDS011;38310;52.796;6.942;2022-12-18T06:12:44;42.30;;;25.13;;
52380;SDS011;38310;52.796;6.942;2022-12-18T06:15:10;45.75;;;27.58;;
52380;SDS011;38310;52.796;6.942;2022-12-18T06:17:36;38.08;;;25.77;;
52380;SDS011;38310;52.796;6.942;2022-12-18T06:20:02;42.72;;;24.35;;
52380;SDS011;38310;52.796;6.942;2022-12-18T06:22:30;42.10;;;24.08;;
52380;SDS011;38310;52.796;6.942;2022-12-18T06:24:56;44.17;;;25.20;;
52380;SDS011;38310;52.796;6.942;2022-12-18T06:27:22;43.17;;;24.48;;
52380;SDS011;38310;52.796;6.942;2022-12-18T06:29:48;42.22;;;26.38;;
52380;SDS011;38310;52.796;6.942;2022-12-18T06:32:14;46.97;;;25.60;;
52380;SDS011;38310;52.796;6.942;2022-12-18T06:34:39;40.40;;;24.67;;
52380;SDS011;38310;52.796;6.942;2022-12-18T06:37:05;37.70;;;23.73;;
52380;SDS011;38310;52.796;6.942;2022-12-18T06:39:31;39.55;;;25.42;;
52380;SDS011;38310;52.796;6.942;2022-12-18T06:41:56;39.97;;;24.65;;
52380;SDS011;38310;52.796;6.942;2022-12-18T06:44:22;39.10;;;22.80;;
52380;SDS011;38310;52.796;6.942;2022-12-18T06:46:48;42.80;;;24.98;;
52380;SDS011;38310;52.796;6.942;2022-12-18T06:49:14;38.22;;;24.58;;
52380;SDS011;38310;52.796;6.942;2022-12-18T06:51:40;39.70;;;24.42;;
52380;SDS011;38310;52.796;6.942;2022-12-18T06:54:07;41.75;;;24.85;;
52380;SDS011;38310;52.796;6.942;2022-12-18T06:56:33;45.55;;;27.35;;
52380;SDS011;38310;52.796;6.942;2022-12-18T06:58:59;46.42;;;26.45;;
52380;SDS011;38310;52.796;6.942;2022-12-18T07:01:24;42.00;;;26.17;;
52380;SDS011;38310;52.796;6.942;2022-12-18T07:03:53;39.45;;;24.75;;
52380;SDS011;38310;52.796;6.942;2022-12-18T07:06:21;43.70;;;23.98;;
52380;SDS011;38310;52.796;6.942;2022-12-18T07:08:48;35.35;;;23.23;;
52380;SDS011;38310;52.796;6.942;2022-12-18T07:11:15;37.97;;;23.83;;
52380;SDS011;38310;52.796;6.942;2022-12-18T07:13:41;37.35;;;22.33;;
52380;SDS011;38310;52.796;6.942;2022-12-18T07:16:14;34.88;;;22.13;;
52380;SDS011;38310;52.796;6.942;2022-12-18T07:18:42;33.97;;;21.58;;
52380;SDS011;38310;52.796;6.942;2022-12-18T07:21:11;43.03;;;26.48;;
52380;SDS011;38310;52.796;6.942;2022-12-18T07:23:41;38.85;;;24.13;;
52380;SDS011;38310;52.796;6.942;2022-12-18T07:26:13;37.08;;;23.70;;
52380;SDS011;38310;52.796;6.942;2022-12-18T07:28:40;40.00;;;25.73;;
52380;SDS011;38310;52.796;6.942;2022-12-18T07:31:14;39.30;;;23.17;;
52380;SDS011;38310;52.796;6.942;2022-12-18T07:33:45;35.92;;;23.08;;
52380;SDS011;38310;52.796;6.942;2022-12-18T07:36:11;31.25;;;20.63;;
52380;SDS011;38310;52.796;6.942;2022-12-18T07:38:37;34.75;;;20.83;;
52380;SDS011;38310;52.796;6.942;2022-12-18T07:41:04;37.08;;;22.75;;
52380;SDS011;38310;52.796;6.942;2022-12-18T07:43:31;33.90;;;21.50;;
52380;SDS011;38310;52.796;6.942;2022-12-18T07:45:57;36.40;;;22.77;;
52380;SDS011;38310;52.796;6.942;2022-12-18T07:48:23;37.60;;;22.10;;
52380;SDS011;38310;52.796;6.942;2022-12-18T07:50:49;38.28;;;24.10;;
52380;SDS011;38310;52.796;6.942;2022-12-18T07:53:14;36.95;;;22.85;;
52380;SDS011;38310;52.796;6.942;2022-12-18T07:55:40;31.67;;;19.90;;
52380;SDS011;38310;52.796;6.942;2022-12-18T07:58:06;33.83;;;19.73;;
52380;SDS011;38310;52.796;6.942;2022-12-18T08:00:33;33.95;;;20.23;;
52380;SDS011;38310;52.796;6.942;2022-12-18T08:02:59;31.13;;;19.05;;
52380;SDS011;38310;52.796;6.942;2022-12-18T08:05:25;32.50;;;20.60;;
52380;SDS011;38310;52.796;6.942;2022-12-18T08:07:51;29.70;;;19.55;;
52380;SDS011;38310;52.796;6.942;2022-12-18T08:10:16;34.20;;;21.40;;
52380;SDS011;38310;52.796;6.942;2022-12-18T08:12:43;26.27;;;19.33;;
52380;SDS011;38310;52.796;6.942;2022-12-18T08:15:09;30.45;;;18.42;;
52380;SDS011;38310;52.796;6.942;2022-12-18T08:17:34;33.15;;;18.92;;
52380;SDS011;38310;52.796;6.942;2022-12-18T08:20:00;25.83;;;17.85;;
52380;SDS011;38310;52.796;6.942;2022-12-18T08:22:26;31.20;;;18.88;;
52380;SDS011;38310;52.796;6.942;2022-12-18T08:24:52;26.88;;;17.48;;
52380;SDS011;38310;52.796;6.942;2022-12-18T08:27:18;24.40;;;16.80;;
52380;SDS011;38310;52.796;6.942;2022-12-18T08:29:43;28.52;;;17.98;;
52380;SDS011;38310;52.796;6.942;2022-12-18T08:32:09;27.10;;;18.17;;
52380;SDS011;38310;52.796;6.942;2022-12-18T08:34:35;30.98;;;18.10;;
52380;SDS011;38310;52.796;6.942;2022-12-18T08:37:01;28.60;;;17.58;;
52380;SDS011;38310;52.796;6.942;2022-12-18T08:39:26;26.38;;;16.63;;
52380;SDS011;38310;52.796;6.942;2022-12-18T08:41:52;23.92;;;15.50;;
52380;SDS011;38310;52.796;6.942;2022-12-18T08:44:36;24.13;;;15.45;;
52380;SDS011;38310;52.796;6.942;2022-12-18T08:47:02;24.27;;;15.15;;
52380;SDS011;38310;52.796;6.942;2022-12-18T08:49:29;24.85;;;15.55;;
52380;SDS011;38310;52.796;6.942;2022-12-18T08:51:55;24.67;;;15.18;;
52380;SDS011;38310;52.796;6.942;2022-12-18T08:54:22;22.23;;;15.32;;
52380;SDS011;38310;52.796;6.942;2022-12-18T08:56:48;22.17;;;14.95;;
52380;SDS011;38310;52.796;6.942;2022-12-18T08:59:15;22.67;;;13.77;;
52380;SDS011;38310;52.796;6.942;2022-12-18T09:01:44;25.30;;;15.50;;
52380;SDS011;38310;52.796;6.942;2022-12-18T09:04:11;22.30;;;14.95;;
52380;SDS011;38310;52.796;6.942;2022-12-18T09:06:37;21.45;;;13.77;;
52380;SDS011;38310;52.796;6.942;2022-12-18T09:09:04;19.25;;;13.50;;
52380;SDS011;38310;52.796;6.942;2022-12-18T09:11:30;20.60;;;14.23;;
52380;SDS011;38310;52.796;6.942;2022-12-18T09:13:56;20.27;;;13.45;;
52380;SDS011;38310;52.796;6.942;2022-12-18T09:16:24;20.90;;;14.98;;
52380;SDS011;38310;52.796;6.942;2022-12-18T09:18:51;20.80;;;12.43;;
52380;SDS011;38310;52.796;6.942;2022-12-18T09:21:19;18.08;;;13.75;;
52380;SDS011;38310;52.796;6.942;2022-12-18T09:23:49;17.88;;;13.60;;
52380;SDS011;38310;52.796;6.942;2022-12-18T09:26:16;20.20;;;13.82;;
52380;SDS011;38310;52.796;6.942;2022-12-18T09:28:42;21.95;;;15.27;;
52380;SDS011;38310;52.796;6.942;2022-12-18T09:31:08;19.98;;;13.40;;
52380;SDS011;38310;52.796;6.942;2022-12-18T09:33:35;17.92;;;13.68;;
52380;SDS011;38310;52.796;6.942;2022-12-18T09:36:02;18.88;;;13.82;;
52380;SDS011;38310;52.796;6.942;2022-12-18T09:38:29;20.38;;;12.60;;
52380;SDS011;38310;52.796;6.942;2022-12-18T09:40:57;15.95;;;11.77;;
52380;SDS011;38310;52.796;6.942;2022-12-18T09:43:46;17.92;;;12.10;;
52380;SDS011;38310;52.796;6.942;2022-12-18T09:46:32;18.80;;;12.52;;
52380;SDS011;38310;52.796;6.942;2022-12-18T09:49:03;19.60;;;13.45;;
52380;SDS011;38310;52.796;6.942;2022-12-18T09:51:39;25.75;;;15.55;;
52380;SDS011;38310;52.796;6.942;2022-12-18T09:54:15;28.40;;;16.80;;
52380;SDS011;38310;52.796;6.942;2022-12-18T09:56:45;20.15;;;13.68;;
52380;SDS011;38310;52.796;6.942;2022-12-18T09:59:33;20.38;;;14.02;;
52380;SDS011;38310;52.796;6.942;2022-12-18T10:02:10;21.30;;;14.05;;
52380;SDS011;38310;52.796;6.942;2022-12-18T10:05:02;18.73;;;13.73;;
52380;SDS011;38310;52.796;6.942;2022-12-18T10:07:43;18.52;;;13.18;;
52380;SDS011;38310;52.796;6.942;2022-12-18T10:10:57;19.85;;;13.80;;
52380;SDS011;38310;52.796;6.942;2022-12-18T10:13:39;19.48;;;13.88;;
52380;SDS011;38310;52.796;6.942;2022-12-18T10:16:13;21.15;;;14.48;;
52380;SDS011;38310;52.796;6.942;2022-12-18T10:21:25;19.45;;;13.88;;
52380;SDS011;38310;52.796;6.942;2022-12-18T10:24:08;17.42;;;12.68;;
52380;SDS011;38310;52.796;6.942;2022-12-18T10:26:55;18.08;;;13.25;;
52380;SDS011;38310;52.796;6.942;2022-12-18T10:29:34;19.65;;;12.30;;
52380;SDS011;38310;52.796;6.942;2022-12-18T10:32:00;18.38;;;12.13;;
52380;SDS011;38310;52.796;6.942;2022-12-18T10:34:25;17.88;;;11.85;;
52380;SDS011;38310;52.796;6.942;2022-12-18T10:36:51;14.50;;;11.88;;
52380;SDS011;38310;52.796;6.942;2022-12-18T10:39:19;16.85;;;12.10;;
52380;SDS011;38310;52.796;6.942;2022-12-18T10:41:48;17.33;;;11.93;;
52380;SDS011;38310;52.796;6.942;2022-12-18T10:46:46;15.13;;;11.43;;
52380;SDS011;38310;52.796;6.942;2022-12-18T10:49:25;16.92;;;11.82;;
52380;SDS011;38310;52.796;6.942;2022-12-18T10:54:48;16.67;;;11.05;;
52380;SDS011;38310;52.796;6.942;2022-12-18T10:57:17;18.05;;;12.40;;
52380;SDS011;38310;52.796;6.942;2022-12-18T11:00:24;13.75;;;10.10;;
52380;SDS011;38310;52.796;6.942;2022-12-18T11:02:47;15.23;;;11.00;;
52380;SDS011;38310;52.796;6.942;2022-12-18T11:07:52;16.70;;;11.30;;
52380;SDS011;38310;52.796;6.942;2022-12-18T11:10:40;13.52;;;10.48;;
52380;SDS011;38310;52.796;6.942;2022-12-18T11:13:21;15.52;;;10.43;;
52380;SDS011;38310;52.796;6.942;2022-12-18T11:15:48;14.98;;;10.77;;
52380;SDS011;38310;52.796;6.942;2022-12-18T11:18:32;15.32;;;11.10;;
52380;SDS011;38310;52.796;6.942;2022-12-18T11:21:09;18.10;;;11.07;;
52380;SDS011;38310;52.796;6.942;2022-12-18T11:23:37;16.52;;;11.20;;
52380;SDS011;38310;52.796;6.942;2022-12-18T11:26:12;15.68;;;11.02;;
52380;SDS011;38310;52.796;6.942;2022-12-18T11:28:43;15.52;;;10.77;;
52380;SDS011;38310;52.796;6.942;2022-12-18T11:31:25;19.17;;;12.52;;
52380;SDS011;38310;52.796;6.942;2022-12-18T11:36:50;16.48;;;11.50;;
52380;SDS011;38310;52.796;6.942;2022-12-18T11:39:22;13.48;;;9.85;;
52380;SDS011;38310;52.796;6.942;2022-12-18T11:47:13;16.38;;;10.10;;
52380;SDS011;38310;52.796;6.942;2022-12-18T11:49:41;11.63;;;9.70;;
52380;SDS011;38310;52.796;6.942;2022-12-18T11:52:15;13.48;;;9.60;;
52380;SDS011;38310;52.796;6.942;2022-12-18T11:54:42;16.15;;;10.10;;
52380;SDS011;38310;52.796;6.942;2022-12-18T12:03:15;13.65;;;9.13;;
52380;SDS011;38310;52.796;6.942;2022-12-18T12:08:42;14.70;;;8.90;;
52380;SDS011;38310;52.796;6.942;2022-12-18T12:17:04;15.25;;;10.73;;
52380;SDS011;38310;52.796;6.942;2022-12-18T12:22:30;18.02;;;12.30;;
52380;SDS011;38310;52.796;6.942;2022-12-18T12:30:30;15.93;;;10.65;;
52380;SDS011;38310;52.796;6.942;2022-12-18T12:36:08;16.40;;;11.15;;
52380;SDS011;38310;52.796;6.942;2022-12-18T12:38:51;18.58;;;12.63;;
52380;SDS011;38310;52.796;6.942;2022-12-18T12:41:23;15.65;;;10.90;;
52380;SDS011;38310;52.796;6.942;2022-12-18T12:44:13;16.98;;;11.20;;
52380;SDS011;38310;52.796;6.942;2022-12-18T12:46:45;14.00;;;10.27;;
52380;SDS011;38310;52.796;6.942;2022-12-18T12:49:15;13.02;;;10.43;;
52380;SDS011;38310;52.796;6.942;2022-12-18T12:51:44;13.40;;;9.85;;
52380;SDS011;38310;52.796;6.942;2022-12-18T12:54:19;15.18;;;11.00;;
52380;SDS011;38310;52.796;6.942;2022-12-18T13:02:17;14.63;;;10.23;;
52380;SDS011;38310;52.796;6.942;2022-12-18T13:04:57;17.10;;;12.15;;
52380;SDS011;38310;52.796;6.942;2022-12-18T13:13:17;16.75;;;11.27;;
52380;SDS011;38310;52.796;6.942;2022-12-18T13:18:28;13.60;;;9.95;;
52380;SDS011;38310;52.796;6.942;2022-12-18T13:25:48;15.05;;;11.02;;
52380;SDS011;38310;52.796;6.942;2022-12-18T13:31:10;13.95;;;10.10;;
52380;SDS011;38310;52.796;6.942;2022-12-18T13:33:37;15.43;;;10.57;;
52380;SDS011;38310;52.796;6.942;2022-12-18T13:41:33;17.63;;;11.63;;
52380;SDS011;38310;52.796;6.942;2022-12-18T13:44:23;15.57;;;11.82;;
52380;SDS011;38310;52.796;6.942;2022-12-18T13:47:25;15.02;;;11.82;;
52380;SDS011;38310;52.796;6.942;2022-12-18T13:49:58;15.40;;;11.02;;
52380;SDS011;38310;52.796;6.942;2022-12-18T13:52:26;17.00;;;12.27;;
52380;SDS011;38310;52.796;6.942;2022-12-18T13:54:58;17.45;;;12.23;;
52380;SDS011;38310;52.796;6.942;2022-12-18T13:57:33;16.75;;;12.35;;
52380;SDS011;38310;52.796;6.942;2022-12-18T14:02:47;17.42;;;12.57;;
52380;SDS011;38310;52.796;6.942;2022-12-18T14:07:48;15.35;;;11.45;;
52380;SDS011;38310;52.796;6.942;2022-12-18T14:10:15;15.52;;;10.82;;
52380;SDS011;38310;52.796;6.942;2022-12-18T14:12:44;16.85;;;12.45;;
52380;SDS011;38310;52.796;6.942;2022-12-18T14:19:08;17.35;;;13.20;;
52380;SDS011;38310;52.796;6.942;2022-12-18T14:21:21;18.13;;;12.70;;
52380;SDS011;38310;52.796;6.942;2022-12-18T14:24:04;18.25;;;13.75;;
52380;SDS011;38310;52.796;6.942;2022-12-18T14:26:39;16.58;;;12.02;;
52380;SDS011;38310;52.796;6.942;2022-12-18T14:32:10;19.52;;;14.73;;
52380;SDS011;38310;52.796;6.942;2022-12-18T14:34:46;21.85;;;15.02;;
52380;SDS011;38310;52.796;6.942;2022-12-18T14:37:14;21.23;;;14.57;;
52380;SDS011;38310;52.796;6.942;2022-12-18T14:40:02;21.98;;;17.48;;
52380;SDS011;38310;52.796;6.942;2022-12-18T14:42:30;29.00;;;20.60;;
52380;SDS011;38310;52.796;6.942;2022-12-18T14:48:00;22.00;;;15.27;;
52380;SDS011;38310;52.796;6.942;2022-12-18T14:50:30;20.55;;;13.35;;
52380;SDS011;38310;52.796;6.942;2022-12-18T14:52:56;20.85;;;14.05;;
52380;SDS011;38310;52.796;6.942;2022-12-18T14:55:22;17.08;;;13.23;;
52380;SDS011;38310;52.796;6.942;2022-12-18T14:57:52;19.45;;;12.82;;
52380;SDS011;38310;52.796;6.942;2022-12-18T15:00:21;18.70;;;13.52;;
52380;SDS011;38310;52.796;6.942;2022-12-18T15:02:52;17.98;;;13.02;;
52380;SDS011;38310;52.796;6.942;2022-12-18T15:05:28;18.33;;;13.23;;
52380;SDS011;38310;52.796;6.942;2022-12-18T15:07:57;20.77;;;14.57;;
52380;SDS011;38310;52.796;6.942;2022-12-18T15:10:33;20.35;;;13.73;;
52380;SDS011;38310;52.796;6.942;2022-12-18T15:17:58;17.67;;;12.90;;
52380;SDS011;38310;52.796;6.942;2022-12-18T15:20:25;19.35;;;13.45;;
52380;SDS011;38310;52.796;6.942;2022-12-18T15:22:51;21.75;;;15.32;;
52380;SDS011;38310;52.796;6.942;2022-12-18T15:25:34;23.38;;;16.02;;
52380;SDS011;38310;52.796;6.942;2022-12-18T15:28:03;18.73;;;14.60;;
52380;SDS011;38310;52.796;6.942;2022-12-18T15:30:40;20.52;;;14.68;;
52380;SDS011;38310;52.796;6.942;2022-12-18T15:33:26;20.30;;;14.25;;
52380;SDS011;38310;52.796;6.942;2022-12-18T15:35:57;19.85;;;13.75;;
52380;SDS011;38310;52.796;6.942;2022-12-18T15:38:29;19.75;;;14.52;;
52380;SDS011;38310;52.796;6.942;2022-12-18T15:40:54;17.15;;;12.52;;
52380;SDS011;38310;52.796;6.942;2022-12-18T15:43:21;18.58;;;14.15;;
52380;SDS011;38310;52.796;6.942;2022-12-18T15:48:31;16.67;;;13.55;;
52380;SDS011;38310;52.796;6.942;2022-12-18T15:51:04;18.13;;;13.07;;
52380;SDS011;38310;52.796;6.942;2022-12-18T15:53:36;20.92;;;15.20;;
52380;SDS011;38310;52.796;6.942;2022-12-18T15:56:04;18.85;;;15.30;;
52380;SDS011;38310;52.796;6.942;2022-12-18T15:58:53;19.33;;;15.07;;
52380;SDS011;38310;52.796;6.942;2022-12-18T16:01:18;20.15;;;15.40;;
52380;SDS011;38310;52.796;6.942;2022-12-18T16:03:47;20.15;;;14.68;;
52380;SDS011;38310;52.796;6.942;2022-12-18T16:06:13;17.55;;;14.00;;
52380;SDS011;38310;52.796;6.942;2022-12-18T16:08:38;17.50;;;14.02;;
52380;SDS011;38310;52.796;6.942;2022-12-18T16:11:04;19.25;;;14.98;;
52380;SDS011;38310;52.796;6.942;2022-12-18T16:13:31;21.02;;;13.90;;
52380;SDS011;38310;52.796;6.942;2022-12-18T16:15:56;19.90;;;15.45;;
52380;SDS011;38310;52.796;6.942;2022-12-18T16:18:22;18.77;;;13.15;;
52380;SDS011;38310;52.796;6.942;2022-12-18T16:20:48;17.65;;;12.70;;
52380;SDS011;38310;52.796;6.942;2022-12-18T16:23:13;18.88;;;13.35;;
52380;SDS011;38310;52.796;6.942;2022-12-18T16:25:39;17.00;;;13.07;;
52380;SDS011;38310;52.796;6.942;2022-12-18T16:28:05;16.60;;;12.48;;
52380;SDS011;38310;52.796;6.942;2022-12-18T16:30:31;18.98;;;13.00;;
52380;SDS011;38310;52.796;6.942;2022-12-18T16:32:57;17.27;;;12.02;;
52380;SDS011;38310;52.796;6.942;2022-12-18T16:35:23;16.85;;;12.82;;
52380;SDS011;38310;52.796;6.942;2022-12-18T16:37:50;19.80;;;12.98;;